Easterwood Field
KCLL : rendu visible

Aérodrome :











RETROUVEZ-NOUS SUR...

 
LOGIN :

S'inscrire | Disclaimer

   EN    FR    IT 

 









Légende :    VFR   VFR Marginal   IFR   IFR Intensif   IFR Très Intensif
Visi : 
Plafond : 
>= 8 km
>= 3000ft
5 à 8 km
1000 à 3000 ft
1500m à 5 km
500 à 1000 ft
800 à 1500m
200 à 500 ft
< 800m
< 200 ft
Symboles :   Orages  Brouillard  Fortes neiges  Fortes précipitations  Vent > 20 kt






- Altitude de l'aérodrome : 320 ft
- Code IATA : CLL


KCLL - Easterwood Field

DERNIER METAR :
  • 232153Z 33012KT 10SM BKN022 15/08 A3000 RMK AO2 SLP157 T01500083

METARs EXPIRÉS :
  • 232143Z 33013KT 10SM BKN022 14/08 A3000 RMK AO2 T01440078
  • 232103Z 33012KT 10SM SCT022 14/08 A3000 RMK AO2 T01440078
  • 232053Z 35013KT 10SM BKN021 13/08 A3000 RMK AO2 SLP155 T01330078 55007
  • 231953Z 35013KT 10SM OVC020 15/08 A2999 RMK AO2 SLP153 T01500083

TAF KCLL
Valide du 23 à 22h jusqu'au 24 à 18h UTC


232156Z 2322/2418 33013KT P6SM BKN022
TEMPO 2322/2324 SCT022
FM240000 34005KT P6SM SKC



MET'MAP, la Météo Aéronautique d'un coup d'oeil ! - Copyright ORBIFLY Décembre 2007 - Disclaimer

ORBIFLY MET'MAP TEAM :

Programmation & Développement : Alexandra Zaïnal
Sur une idée originale de : Baudouin d'Aumeries
Assistance à la programmation : Marc-Olivier Méhu
Soutien technique & logistique : Manuel Goepfert

Contact : metmap@orbifly.com




SOURCES & CREDITS :

   NOAA       Earth
Advisory